createdAt,value
2023-05-10T00:01:28.310Z,55.98
2023-05-10T00:04:50.372Z,55.72
2023-05-10T00:08:13.691Z,55.93
2023-05-10T00:11:35.193Z,55.94
2023-05-10T00:14:55.070Z,56.75
2023-05-10T00:18:18.977Z,57.28
2023-05-10T00:22:04.657Z,57.86
2023-05-10T00:25:42.774Z,58.11
2023-05-10T00:29:14.803Z,58.60
2023-05-10T00:32:40.823Z,58.48
2023-05-10T00:36:09.058Z,58.87
2023-05-10T00:39:31.614Z,59.51
2023-05-10T00:43:09.529Z,59.98
2023-05-10T00:46:39.627Z,60.02
2023-05-10T00:50:18.093Z,60.09
2023-05-10T00:53:45.307Z,60.69
2023-05-10T00:57:02.480Z,61.12
2023-05-10T01:00:33.572Z,61.01
2023-05-10T01:04:11.899Z,61.65
2023-05-10T01:07:50.491Z,62.26
2023-05-10T01:11:17.486Z,61.65
2023-05-10T01:14:51.953Z,61.98
2023-05-10T01:18:16.519Z,61.79
2023-05-10T01:21:57.673Z,62.44
2023-05-10T01:25:25.998Z,61.53
2023-05-10T01:29:01.232Z,61.56
2023-05-10T01:32:46.493Z,61.80
2023-05-10T01:36:15.248Z,62.13
2023-05-10T01:39:40.965Z,62.04
2023-05-10T01:43:19.394Z,61.96
2023-05-10T01:46:56.687Z,62.62
2023-05-10T01:50:23.495Z,61.93
2023-05-10T01:53:46.164Z,62.21
2023-05-10T01:57:09.297Z,61.99
2023-05-10T02:00:26.316Z,62.18
2023-05-10T02:03:49.454Z,61.83
2023-05-10T02:07:09.322Z,61.33
2023-05-10T02:10:33.130Z,61.46
2023-05-10T02:13:53.220Z,61.28
2023-05-10T02:17:22.034Z,61.30
2023-05-10T02:20:50.419Z,60.35
2023-05-10T02:24:20.712Z,60.50
2023-05-10T02:27:58.845Z,60.07
2023-05-10T02:31:27.489Z,59.52
2023-05-10T02:34:53.597Z,58.92
2023-05-10T02:38:24.468Z,58.38
2023-05-10T02:41:41.973Z,58.49
2023-05-10T02:45:03.401Z,58.91
2023-05-10T02:48:37.091Z,58.42
2023-05-10T02:52:09.815Z,58.23
2023-05-10T02:55:55.340Z,58.56
2023-05-10T02:59:19.680Z,58.85
2023-05-10T03:02:44.123Z,58.46
2023-05-10T03:06:13.040Z,58.76
2023-05-10T03:09:37.082Z,57.55
2023-05-10T03:13:26.378Z,58.22
2023-05-10T03:17:06.474Z,57.40
2023-05-10T03:20:36.514Z,57.28
2023-05-10T03:24:27.211Z,57.27
2023-05-10T03:28:01.615Z,57.73
2023-05-10T03:31:20.733Z,57.27
2023-05-10T03:34:38.662Z,57.53
2023-05-10T03:37:50.729Z,57.91
2023-05-10T03:41:10.433Z,58.06
2023-05-10T03:44:42.048Z,57.77
2023-05-10T03:48:20.492Z,57.40
2023-05-10T03:51:37.356Z,57.69
2023-05-10T03:54:58.182Z,56.85
2023-05-10T03:58:19.826Z,57.17
2023-05-10T04:01:50.026Z,57.43
2023-05-10T04:05:17.169Z,56.73
2023-05-10T04:08:42.620Z,57.23
2023-05-10T04:12:04.970Z,56.54
2023-05-10T04:15:33.071Z,56.80
2023-05-10T04:19:09.938Z,57.20
2023-05-10T04:22:49.246Z,57.73
2023-05-10T04:26:20.032Z,57.63
2023-05-10T04:29:53.072Z,57.42
2023-05-10T04:33:19.246Z,57.32
2023-05-10T04:36:55.710Z,57.35
2023-05-10T04:40:25.474Z,57.58
2023-05-10T04:43:57.084Z,57.35
2023-05-10T04:47:20.777Z,57.41
2023-05-10T04:50:37.124Z,57.22
2023-05-10T04:53:46.407Z,57.04
2023-05-10T04:57:12.332Z,58.30
2023-05-10T05:00:41.782Z,56.80
2023-05-10T05:04:05.868Z,57.08
2023-05-10T05:07:27.386Z,58.01
2023-05-10T05:11:04.906Z,57.27
2023-05-10T05:14:30.474Z,57.51
2023-05-10T05:18:00.145Z,56.69
2023-05-10T05:21:30.012Z,57.16
2023-05-10T05:25:00.908Z,57.18
2023-05-10T05:28:24.928Z,57.84
2023-05-10T05:31:33.036Z,57.63
2023-05-10T05:34:55.994Z,57.61
2023-05-10T05:38:09.340Z,56.55
2023-05-10T05:41:17.195Z,56.37
2023-05-10T05:44:26.070Z,56.00
2023-05-10T05:47:35.493Z,56.14
2023-05-10T05:50:51.733Z,56.02
2023-05-10T05:54:08.706Z,56.82
2023-05-10T05:57:44.548Z,56.60
2023-05-10T06:00:54.883Z,56.43
2023-05-10T06:04:17.746Z,55.93
2023-05-10T06:07:35.549Z,55.96
2023-05-10T06:10:43.447Z,55.94
2023-05-10T06:14:18.852Z,55.67
2023-05-10T06:17:54.412Z,55.63
2023-05-10T06:21:31.020Z,55.34
2023-05-10T06:24:48.873Z,54.95
2023-05-10T06:28:03.755Z,55.28
2023-05-10T06:31:30.020Z,54.79
2023-05-10T06:34:47.621Z,53.45
2023-05-10T06:38:12.892Z,53.57
2023-05-10T06:41:34.671Z,54.85
2023-05-10T06:44:44.720Z,55.20
2023-05-10T06:48:10.564Z,54.17
2023-05-10T06:51:27.484Z,55.69
2023-05-10T06:55:02.969Z,55.36
2023-05-10T06:58:26.986Z,54.46
2023-05-10T07:01:46.333Z,54.52
2023-05-10T07:05:11.982Z,55.01
2023-05-10T07:08:25.988Z,54.68
2023-05-10T07:11:33.182Z,54.48
2023-05-10T07:14:59.971Z,55.08
2023-05-10T07:18:29.407Z,53.80
2023-05-10T07:21:50.374Z,54.60
2023-05-10T07:25:12.151Z,52.92
2023-05-10T07:28:20.505Z,53.58
2023-05-10T07:31:47.326Z,52.38
2023-05-10T07:35:16.103Z,50.91
2023-05-10T07:38:31.809Z,50.89
2023-05-10T07:41:48.683Z,51.20
2023-05-10T07:45:03.634Z,50.68
2023-05-10T07:48:32.370Z,50.69
2023-05-10T07:51:40.775Z,50.59
2023-05-10T07:54:59.004Z,50.29
2023-05-10T07:58:17.816Z,50.96
2023-05-10T08:01:35.337Z,50.32
2023-05-10T08:04:52.250Z,49.61
2023-05-10T08:08:04.263Z,49.85
2023-05-10T08:11:11.213Z,49.98
2023-05-10T08:14:47.942Z,48.99
2023-05-10T08:17:56.546Z,49.86
2023-05-10T08:21:13.876Z,51.07
2023-05-10T08:24:17.461Z,48.95
2023-05-10T08:27:27.665Z,48.42
2023-05-10T08:30:40.460Z,48.99
2023-05-10T08:34:32.977Z,48.39
2023-05-10T08:37:44.358Z,48.06
2023-05-10T08:41:06.549Z,48.43
2023-05-10T08:44:31.249Z,49.31
2023-05-10T08:47:51.436Z,48.58
2023-05-10T08:51:30.328Z,47.60
2023-05-10T08:54:52.452Z,48.05
2023-05-10T08:58:05.449Z,46.61
2023-05-10T09:01:12.255Z,47.70
2023-05-10T09:04:38.762Z,48.24
2023-05-10T09:08:17.850Z,48.06
2023-05-10T09:11:36.256Z,46.63
2023-05-10T09:15:00.233Z,46.87
2023-05-10T09:18:15.347Z,45.03
2023-05-10T09:21:41.364Z,44.18
2023-05-10T09:25:33.586Z,43.92
2023-05-10T09:28:59.345Z,43.60
2023-05-10T09:32:03.866Z,42.64
2023-05-10T09:35:16.764Z,44.87
2023-05-10T09:38:29.243Z,44.79
2023-05-10T09:41:51.162Z,44.56
2023-05-10T09:45:17.760Z,43.98
2023-05-10T09:48:27.068Z,43.01
2023-05-10T09:51:37.214Z,43.22
2023-05-10T09:54:56.654Z,41.67
2023-05-10T09:58:10.629Z,40.92
2023-05-10T10:01:30.395Z,39.96
2023-05-10T10:04:49.232Z,41.35
2023-05-10T10:08:02.055Z,41.98
2023-05-10T10:11:09.466Z,41.68
2023-05-10T10:14:30.830Z,39.94
2023-05-10T10:18:01.403Z,40.32
2023-05-10T10:22:03.285Z,40.42
2023-05-10T10:25:26.314Z,39.44
2023-05-10T10:29:12.065Z,39.47
2023-05-10T10:32:56.635Z,40.50
2023-05-10T10:36:10.977Z,40.64
2023-05-10T10:39:33.970Z,39.91
2023-05-10T10:42:52.712Z,38.64
2023-05-10T10:46:18.798Z,38.25
2023-05-10T10:49:44.087Z,37.86
2023-05-10T10:52:57.179Z,37.78
2023-05-10T10:56:18.525Z,37.35
2023-05-10T10:59:44.370Z,37.90
2023-05-10T11:08:52.216Z,36.34
2023-05-10T11:12:02.318Z,34.87
2023-05-10T11:15:13.121Z,35.89
2023-05-10T11:18:32.087Z,36.78
2023-05-10T11:22:08.052Z,37.88
2023-05-10T11:25:16.240Z,36.98
2023-05-10T11:28:23.983Z,35.39
2023-05-10T11:31:43.240Z,35.07
2023-05-10T11:34:50.667Z,33.84
2023-05-10T11:37:57.406Z,35.00
2023-05-10T11:41:15.967Z,34.02
2023-05-10T11:44:40.298Z,33.95
2023-05-10T11:47:51.573Z,35.21
2023-05-10T11:51:16.907Z,34.56
2023-05-10T11:54:38.077Z,35.07
2023-05-10T11:57:49.090Z,35.73
2023-05-10T12:01:18.583Z,35.46
2023-05-10T12:04:25.479Z,35.97
2023-05-10T12:07:49.644Z,37.44
2023-05-10T12:11:18.350Z,37.18
2023-05-10T12:14:38.747Z,36.24
2023-05-10T12:17:53.511Z,34.74
2023-05-10T12:21:11.714Z,35.54
2023-05-10T12:24:48.507Z,34.77
2023-05-10T12:27:57.258Z,35.67
2023-05-10T12:31:09.570Z,35.03
2023-05-10T12:34:29.025Z,35.22
2023-05-10T12:37:40.756Z,35.21
2023-05-10T12:40:50.188Z,34.64
2023-05-10T12:43:59.664Z,33.51
2023-05-10T12:47:20.859Z,33.61
2023-05-10T12:50:25.911Z,33.81
2023-05-10T12:53:30.041Z,35.10
2023-05-10T12:56:41.947Z,35.51
2023-05-10T13:00:07.426Z,35.13
2023-05-10T13:03:30.820Z,34.73
2023-05-10T13:06:57.565Z,35.67
2023-05-10T13:10:20.327Z,35.27
2023-05-10T13:13:45.115Z,34.05
2023-05-10T13:17:04.246Z,33.86
2023-05-10T13:23:28.252Z,34.14
2023-05-10T13:26:37.440Z,33.30
2023-05-10T13:29:54.170Z,29.62
2023-05-10T13:33:36.270Z,27.61
2023-05-10T13:36:45.049Z,31.17
2023-05-10T13:40:06.232Z,32.63
2023-05-10T13:43:21.181Z,32.04
2023-05-10T13:46:41.468Z,32.09
2023-05-10T13:50:05.861Z,33.64
2023-05-10T13:53:19.008Z,30.46
2023-05-10T13:56:50.457Z,31.54
2023-05-10T14:00:08.090Z,32.07
2023-05-10T14:03:33.315Z,32.33
2023-05-10T14:08:13.139Z,28.03
2023-05-10T14:11:50.364Z,28.81
2023-05-10T14:15:27.988Z,28.73
2023-05-10T14:18:41.164Z,26.53
2023-05-10T14:22:07.996Z,25.28
2023-05-10T14:25:24.364Z,25.67
2023-05-10T14:28:46.812Z,25.14
2023-05-10T14:32:12.583Z,24.10
2023-05-10T14:35:21.388Z,24.01
2023-05-10T14:38:57.801Z,23.08
2023-05-10T14:42:11.054Z,25.87
2023-05-10T14:45:37.767Z,27.00
2023-05-10T14:48:54.212Z,29.44
2023-05-10T14:52:56.095Z,28.58
2023-05-10T14:56:52.488Z,31.34
2023-05-10T15:00:17.579Z,31.64
2023-05-10T15:03:30.903Z,32.92
2023-05-10T15:06:38.502Z,33.12
2023-05-10T15:10:51.394Z,33.33
2023-05-10T15:14:18.911Z,33.40
2023-05-10T15:17:46.398Z,33.07
2023-05-10T15:21:03.479Z,32.53
2023-05-10T15:24:21.531Z,31.66
2023-05-10T15:27:31.221Z,32.02
2023-05-10T15:30:37.584Z,31.70
2023-05-10T15:33:48.249Z,31.85
2023-05-10T15:37:04.654Z,31.28
2023-05-10T15:40:27.441Z,32.45
2023-05-10T15:43:39.090Z,33.59
2023-05-10T15:47:03.860Z,33.60
2023-05-10T15:50:18.938Z,33.51
2023-05-10T15:53:26.647Z,33.18
2023-05-10T15:56:31.374Z,33.61
2023-05-10T15:59:36.008Z,33.47
2023-05-10T16:02:59.395Z,33.40
2023-05-10T16:06:23.130Z,34.44
2023-05-10T16:09:59.363Z,34.56
2023-05-10T16:13:17.241Z,33.30
2023-05-10T16:16:39.775Z,33.19
2023-05-10T16:20:06.057Z,32.87
2023-05-10T16:23:29.637Z,33.64
2023-05-10T16:26:56.001Z,33.44
2023-05-10T16:30:14.684Z,33.07
2023-05-10T16:33:31.672Z,33.60
2023-05-10T16:36:56.186Z,33.93
2023-05-10T16:40:18.363Z,34.19
2023-05-10T16:43:42.362Z,34.83
2023-05-10T16:47:04.783Z,35.12
2023-05-10T16:50:26.274Z,35.94
2023-05-10T16:53:43.345Z,36.52
2023-05-10T16:57:05.169Z,36.67
2023-05-10T17:00:29.633Z,35.98
2023-05-10T17:03:53.244Z,36.51
2023-05-10T17:07:11.043Z,36.48
2023-05-10T17:10:18.390Z,37.75
2023-05-10T17:13:25.987Z,37.63
2023-05-10T17:16:48.789Z,37.70
2023-05-10T17:19:57.747Z,37.65
2023-05-10T17:23:21.329Z,37.53
2023-05-10T17:26:34.898Z,37.63
2023-05-10T17:29:51.115Z,37.73
2023-05-10T17:32:58.763Z,38.00
2023-05-10T17:36:04.566Z,38.15
2023-05-10T17:39:22.499Z,38.16
2023-05-10T17:42:37.647Z,38.00
2023-05-10T17:45:42.116Z,38.61
2023-05-10T17:48:49.872Z,38.74
2023-05-10T17:52:12.032Z,38.86
2023-05-10T17:55:36.965Z,38.78
2023-05-10T17:59:14.420Z,39.00
2023-05-10T18:02:24.077Z,38.91
2023-05-10T18:05:38.065Z,38.87
2023-05-10T18:08:55.527Z,38.73
2023-05-10T18:12:20.063Z,38.90
2023-05-10T18:15:38.855Z,38.75
2023-05-10T18:19:01.159Z,38.71
2023-05-10T18:22:32.545Z,38.68
2023-05-10T18:25:44.339Z,38.78
2023-05-10T18:29:07.067Z,38.87
2023-05-10T18:32:34.950Z,38.43
2023-05-10T18:35:54.195Z,38.94
2023-05-10T18:39:14.063Z,38.16
2023-05-10T18:42:35.935Z,38.46
2023-05-10T18:46:08.460Z,38.22
2023-05-10T18:49:29.979Z,38.01
2023-05-10T18:52:45.948Z,38.63
2023-05-10T18:56:09.968Z,38.25
2023-05-10T18:59:28.187Z,38.48
2023-05-10T19:02:49.138Z,38.83
2023-05-10T19:05:57.367Z,39.25
2023-05-10T19:09:01.568Z,38.90
2023-05-10T19:12:09.021Z,38.91
2023-05-10T19:15:13.836Z,39.15
2023-05-10T19:18:22.591Z,39.01
2023-05-10T19:21:30.296Z,39.55
2023-05-10T19:24:39.868Z,40.00
2023-05-10T19:28:02.063Z,40.03
2023-05-10T19:31:18.954Z,40.27
2023-05-10T19:34:41.063Z,40.42
2023-05-10T19:38:00.071Z,40.44
2023-05-10T19:41:14.701Z,40.57
2023-05-10T19:44:25.055Z,40.86
2023-05-10T19:47:30.611Z,41.11
2023-05-10T19:50:58.563Z,40.93
2023-05-10T19:54:22.832Z,40.63
2023-05-10T19:57:38.629Z,40.84
2023-05-10T20:00:49.837Z,40.93
2023-05-10T20:04:01.430Z,40.92
2023-05-10T20:07:07.623Z,40.90
2023-05-10T20:10:13.034Z,40.60
2023-05-10T20:13:29.041Z,40.06
2023-05-10T20:16:49.365Z,40.50
2023-05-10T20:20:21.413Z,40.32
2023-05-10T20:23:42.991Z,40.72
2023-05-10T20:26:50.626Z,41.13
2023-05-10T20:30:00.012Z,40.86
2023-05-10T20:33:10.705Z,40.84
2023-05-10T20:36:24.869Z,40.73
2023-05-10T20:39:43.931Z,42.59
2023-05-10T20:43:06.076Z,43.22
2023-05-10T20:46:10.507Z,43.84
2023-05-10T20:49:16.204Z,43.75
2023-05-10T20:52:21.370Z,44.34
2023-05-10T20:55:45.442Z,44.33
2023-05-10T20:59:08.493Z,44.39
2023-05-10T21:02:26.118Z,44.94
2023-05-10T21:05:50.757Z,44.63
2023-05-10T21:08:56.873Z,44.64
2023-05-10T21:12:03.966Z,44.73
2023-05-10T21:15:12.951Z,44.98
2023-05-10T21:18:26.683Z,45.19
2023-05-10T21:21:32.533Z,45.58
2023-05-10T21:24:47.279Z,45.34
2023-05-10T21:27:55.891Z,45.46
2023-05-10T21:31:04.176Z,45.38
2023-05-10T21:34:07.995Z,45.00
2023-05-10T21:37:27.028Z,45.66
2023-05-10T21:40:59.409Z,45.63
2023-05-10T21:44:24.336Z,44.81
2023-05-10T21:47:43.021Z,44.67
2023-05-10T21:50:59.951Z,44.81
2023-05-10T21:54:29.223Z,45.10
2023-05-10T21:58:11.456Z,44.04
2023-05-10T22:01:33.580Z,44.04
2023-05-10T22:04:57.206Z,43.64
2023-05-10T22:08:14.978Z,43.53
2023-05-10T22:11:25.188Z,43.33
2023-05-10T22:14:42.253Z,43.28
2023-05-10T22:18:03.448Z,43.74
2023-05-10T22:21:26.258Z,44.00
2023-05-10T22:24:48.032Z,43.73
2023-05-10T22:27:51.361Z,44.36
2023-05-10T22:30:56.932Z,44.06
2023-05-10T22:34:18.749Z,44.17
2023-05-10T22:37:35.847Z,44.06
2023-05-10T22:41:15.267Z,44.22
2023-05-10T22:44:25.874Z,44.56
2023-05-10T22:47:33.829Z,44.57
2023-05-10T22:50:54.553Z,44.88
2023-05-10T22:53:59.395Z,45.42
2023-05-10T22:57:04.102Z,45.36
2023-05-10T23:00:27.388Z,46.03
2023-05-10T23:03:42.323Z,45.64
2023-05-10T23:07:06.264Z,45.91
2023-05-10T23:10:34.906Z,45.67
2023-05-10T23:13:56.570Z,45.40
2023-05-10T23:17:23.767Z,42.26
2023-05-10T23:20:41.719Z,44.46
2023-05-10T23:24:03.488Z,43.81
2023-05-10T23:27:26.222Z,43.14
2023-05-10T23:30:46.664Z,42.55
2023-05-10T23:34:03.348Z,42.22
2023-05-10T23:37:24.968Z,42.35
2023-05-10T23:40:47.163Z,42.57
2023-05-10T23:44:20.345Z,42.63
2023-05-10T23:47:41.405Z,43.03
2023-05-10T23:50:45.394Z,43.85
2023-05-10T23:53:49.945Z,43.60
2023-05-10T23:57:08.210Z,43.25
